Time;durP1;ratioP1;P1;durP2;ratioP2;P2;SDS_P1;SDS_P2;PMS_P1;PMS_P2;Temp;Humidity;BMP_temperature;BMP_pressure;BME280_temperature;BME280_humidity;BME280_pressure;Samples;Min_cycle;Max_cycle;Signal;HPM_P1;HPM_P2
2022/03/16 00:00:15;;;;;;;0.50;0.50;;;;;;;6.37;94.44;97567.91;29395;216;63005;-63
2022/03/16 00:00:46;;;;;;;0.60;0.60;;;;;;;6.37;94.23;97572.50;29395;221;63009;-62
2022/03/16 00:01:18;;;;;;;0.50;0.50;;;;;;;6.37;94.46;97567.09;29394;282;64009;-60
2022/03/16 00:01:50;;;;;;;0.50;0.50;;;;;;;6.35;94.32;97564.66;29394;211;64013;-60
2022/03/16 00:02:21;;;;;;;0.50;0.50;;;;;;;6.35;94.15;97571.94;29395;211;63005;-59
2022/03/16 00:02:52;;;;;;;0.50;0.50;;;;;;;6.35;94.30;97566.53;29395;229;63009;-59
2022/03/16 00:03:23;;;;;;;0.52;0.52;;;;;;;6.34;94.28;97579.19;29395;223;63005;-63
2022/03/16 00:03:54;;;;;;;0.50;0.50;;;;;;;6.33;94.62;97576.75;29395;202;63009;-59
2022/03/16 00:04:25;;;;;;;0.50;0.50;;;;;;;6.33;94.28;97572.16;29395;196;63004;-59
2022/03/16 00:04:57;;;;;;;0.50;0.50;;;;;;;6.32;94.36;97565.16;29395;274;63009;-63
2022/03/16 00:05:28;;;;;;;0.50;0.50;;;;;;;6.32;94.48;97569.72;29395;204;63017;-64
2022/03/16 00:05:59;;;;;;;0.50;0.50;;;;;;;6.30;94.75;97569.97;29395;251;63009;-59
2022/03/16 00:06:33;;;;;;;0.50;0.50;;;;;;;6.30;94.57;97577.25;29394;203;64008;-60
2022/03/16 00:07:04;;;;;;;0.50;0.50;;;;;;;6.31;94.59;97578.88;29395;248;63008;-63
2022/03/16 00:07:36;;;;;;;0.50;0.50;;;;;;;6.36;94.98;97571.69;29395;300;63005;-62
2022/03/16 00:08:07;;;;;;;0.50;0.50;;;;;;;6.44;94.08;97572.31;29395;213;63009;-60
2022/03/16 00:08:38;;;;;;;0.50;0.50;;;;;;;6.42;93.95;97575.25;29395;214;63011;-62
2022/03/16 00:09:09;;;;;;;0.50;0.50;;;;;;;6.39;93.90;97565.78;29395;238;63009;-63
2022/03/16 00:09:40;;;;;;;0.50;0.50;;;;;;;6.39;93.58;97565.78;29395;229;63005;-63
2022/03/16 00:10:14;;;;;;;0.50;0.50;;;;;;;6.42;93.81;97569.06;29395;238;63009;-59
2022/03/16 00:10:46;;;;;;;0.50;0.50;;;;;;;6.44;93.61;97577.72;29395;223;63005;-59
2022/03/16 00:11:17;;;;;;;0.50;0.50;;;;;;;6.43;93.48;97571.50;29395;236;63009;-61
2022/03/16 00:11:48;;;;;;;0.50;0.50;;;;;;;6.44;93.45;97572.31;29394;296;64009;-59
2022/03/16 00:12:19;;;;;;;0.50;0.50;;;;;;;6.43;93.81;97571.50;29395;216;63009;-62
2022/03/16 00:12:50;;;;;;;0.50;0.50;;;;;;;6.43;93.63;97568.81;29394;219;64009;-59
2022/03/16 00:13:21;;;;;;;0.50;0.50;;;;;;;6.45;93.68;97569.37;29394;394;64013;-63
2022/03/16 00:13:53;;;;;;;0.50;0.50;;;;;;;6.44;93.30;97570.44;29395;228;63004;-62
2022/03/16 00:14:24;;;;;;;0.50;0.50;;;;;;;6.42;93.30;97575.25;29395;219;63008;-63
2022/03/16 00:14:55;;;;;;;0.50;0.50;;;;;;;6.44;93.46;97573.12;29395;225;63005;-60
2022/03/16 00:15:26;;;;;;;0.50;0.50;;;;;;;6.44;93.28;97567.75;29395;203;63009;-62
2022/03/16 00:16:00;;;;;;;0.50;0.50;;;;;;;6.49;93.04;97575.91;29395;226;63005;-65
2022/03/16 00:16:31;;;;;;;0.50;0.50;;;;;;;6.53;92.72;97568.94;29395;312;63009;-64
2022/03/16 00:17:04;;;;;;;0.50;0.50;;;;;;;6.54;92.35;97575.16;29395;282;63005;-62
2022/03/16 00:17:36;;;;;;;0.50;0.50;;;;;;;6.53;92.29;97566.25;29394;287;64013;-61
2022/03/16 00:18:07;;;;;;;0.50;0.50;;;;;;;6.53;92.13;97565.44;29394;227;64009;-60
2022/03/16 00:18:38;;;;;;;0.50;0.50;;;;;;;6.48;92.29;97574.25;29395;252;63009;-63
2022/03/16 00:19:09;;;;;;;0.50;0.50;;;;;;;6.47;92.04;97566.44;29395;203;63004;-62
2022/03/16 00:19:41;;;;;;;0.50;0.50;;;;;;;6.49;92.50;97565.12;29394;237;64013;-62
2022/03/16 00:20:12;;;;;;;0.50;0.50;;;;;;;6.49;92.52;97573.19;29395;207;63004;-61
2022/03/16 00:20:43;;;;;;;0.50;0.50;;;;;;;6.53;92.20;97568.13;29395;224;63009;-58
2022/03/16 00:21:15;;;;;;;0.50;0.50;;;;;;;6.53;92.27;97565.44;29395;231;63004;-63
2022/03/16 00:21:47;;;;;;;0.50;0.50;;;;;;;6.52;91.97;97563.81;29394;220;64013;-63
2022/03/16 00:22:20;;;;;;;0.50;0.50;;;;;;;6.49;91.92;97564.28;29395;218;63004;-58
2022/03/16 00:22:51;;;;;;;0.68;0.68;;;;;;;6.47;92.19;97569.94;29394;225;64014;-63
2022/03/16 00:23:22;;;;;;;0.50;0.50;;;;;;;6.44;92.07;97567.75;29395;300;63005;-62
2022/03/16 00:23:54;;;;;;;0.60;0.60;;;;;;;6.41;92.39;97562.84;29395;228;63009;-63
2022/03/16 00:24:25;;;;;;;0.50;0.50;;;;;;;6.42;92.56;97564.47;29395;218;63005;-64
2022/03/16 00:25:01;;;;;;;0.50;0.50;;;;;;;6.43;92.45;97566.09;29394;211;64013;-60
2022/03/16 00:25:33;;;;;;;0.50;0.50;;;;;;;6.46;92.65;97565.62;29395;203;63005;-60
2022/03/16 00:26:04;;;;;;;0.50;0.50;;;;;;;6.51;92.48;97560.28;29395;216;63009;-59
2022/03/16 00:26:35;;;;;;;0.60;0.60;;;;;;;6.55;92.32;97569.50;29395;229;63004;-65
2022/03/16 00:27:07;;;;;;;0.50;0.50;;;;;;;6.57;92.10;97566.56;29395;218;63009;-65
2022/03/16 00:27:38;;;;;;;0.50;0.50;;;;;;;6.64;91.73;97564.47;29395;219;63004;-63
2022/03/16 00:28:13;;;;;;;0.50;0.50;;;;;;;6.64;91.66;97561.78;29394;236;64013;-61
2022/03/16 00:28:45;;;;;;;0.50;0.50;;;;;;;6.61;91.31;97557.69;29395;219;63004;-62
2022/03/16 00:29:17;;;;;;;0.50;0.50;;;;;;;6.58;91.69;97557.41;29395;202;63008;-60
2022/03/16 00:29:48;;;;;;;0.50;0.50;;;;;;;6.54;91.58;97561.66;29395;223;63004;-60
2022/03/16 00:30:19;;;;;;;0.50;0.50;;;;;;;6.50;91.85;97561.34;29394;247;64014;-62
2022/03/16 00:30:50;;;;;;;0.55;0.55;;;;;;;6.48;91.89;97562.66;29395;224;63005;-63
2022/03/16 00:31:22;;;;;;;0.50;0.50;;;;;;;6.46;92.37;97560.22;29395;222;63009;-59
2022/03/16 00:31:53;;;;;;;0.50;0.50;;;;;;;6.44;92.27;97562.34;29395;241;63005;-59
2022/03/16 00:32:24;;;;;;;0.50;0.50;;;;;;;6.41;92.47;97562.84;29395;216;63009;-59
2022/03/16 00:32:55;;;;;;;0.50;0.50;;;;;;;6.38;92.70;97564.16;29394;204;64009;-62
2022/03/16 00:33:26;;;;;;;0.50;0.50;;;;;;;6.36;92.73;97560.06;29395;224;63009;-61
2022/03/16 00:33:57;;;;;;;0.50;0.50;;;;;;;6.35;92.63;97569.22;29395;220;63012;-59
2022/03/16 00:34:31;;;;;;;0.50;0.50;;;;;;;6.32;92.91;97562.44;29395;210;63009;-59
2022/03/16 00:35:03;;;;;;;1.15;1.15;;;;;;;6.31;92.85;97568.09;29395;252;63004;-59
2022/03/16 00:35:34;;;;;;;0.50;0.50;;;;;;;6.36;93.36;97570.84;29395;284;63009;-65
2022/03/16 00:36:06;;;;;;;0.50;0.50;;;;;;;6.39;92.94;97557.69;29395;202;63004;-62
2022/03/16 00:36:40;;;;;;;0.50;0.50;;;;;;;6.42;92.92;97567.16;29395;234;63008;-63
2022/03/16 00:37:11;;;;;;;0.50;0.50;;;;;;;6.43;92.92;97565.28;29395;199;63018;-63
2022/03/16 00:37:43;;;;;;;0.50;0.50;;;;;;;6.45;93.13;97563.16;29395;209;63009;-63
2022/03/16 00:38:16;;;;;;;0.50;0.50;;;;;;;6.43;92.84;97566.09;29394;214;64009;-62
2022/03/16 00:38:49;;;;;;;0.50;0.50;;;;;;;6.40;92.97;97574.69;29395;202;63009;-60
2022/03/16 00:39:20;;;;;;;0.55;0.55;;;;;;;6.41;92.75;97568.22;29395;226;63005;-65
2022/03/16 00:39:51;;;;;;;0.50;0.50;;;;;;;6.42;93.06;97561.78;29395;253;63009;-63
2022/03/16 00:40:22;;;;;;;0.60;0.60;;;;;;;6.45;92.81;97563.16;29395;236;63005;-62
2022/03/16 00:40:53;;;;;;;0.50;0.50;;;;;;;6.46;92.66;97559.41;29395;216;63009;-62
2022/03/16 00:41:25;;;;;;;0.50;0.50;;;;;;;6.44;92.59;97561.53;29395;293;63004;-59
2022/03/16 00:41:56;;;;;;;0.50;0.50;;;;;;;6.42;92.98;97564.47;29395;223;63009;-63
2022/03/16 00:42:28;;;;;;;0.50;0.50;;;;;;;6.39;92.72;97570.37;29395;254;63004;-60
2022/03/16 00:43:00;;;;;;;0.50;0.50;;;;;;;6.37;92.79;97561.72;29395;236;63009;-63
2022/03/16 00:43:35;;;;;;;0.50;0.50;;;;;;;6.41;92.99;97567.41;29394;230;64008;-63
2022/03/16 00:44:07;;;;;;;0.50;0.50;;;;;;;6.41;93.35;97557.47;29395;198;63008;-61
2022/03/16 00:44:38;;;;;;;0.50;0.50;;;;;;;6.43;92.88;97559.91;29395;269;63005;-63
2022/03/16 00:45:11;;;;;;;0.50;0.50;;;;;;;6.40;93.10;97566.59;29395;251;63009;-60
2022/03/16 00:45:42;;;;;;;0.50;0.50;;;;;;;6.38;93.11;97569.56;29395;197;63005;-60
2022/03/16 00:46:14;;;;;;;0.50;0.50;;;;;;;6.35;92.99;97566.53;29395;203;63009;-63
2022/03/16 00:46:45;;;;;;;0.50;0.50;;;;;;;6.33;92.92;97565.97;29395;231;63005;-62
2022/03/16 00:47:17;;;;;;;0.50;0.50;;;;;;;6.33;93.26;97572.16;29395;238;63009;-63
2022/03/16 00:47:52;;;;;;;0.50;0.50;;;;;;;6.32;93.24;97569.72;29395;286;63005;-63
2022/03/16 00:48:27;;;;;;;0.50;0.50;;;;;;;6.30;93.27;97575.34;29395;230;63009;-62
2022/03/16 00:49:01;;;;;;;0.50;0.50;;;;;;;6.29;93.36;97573.72;29371;216;64009;-59
2022/03/16 00:49:32;;;;;;;0.50;0.50;;;;;;;6.28;93.54;97568.59;29395;218;63009;-62
2022/03/16 00:50:05;;;;;;;0.50;0.50;;;;;;;6.26;93.77;97576.09;29395;211;63004;-62
2022/03/16 00:50:37;;;;;;;0.50;0.50;;;;;;;6.24;93.79;97570.16;29395;288;63009;-59
2022/03/16 00:51:09;;;;;;;0.50;0.50;;;;;;;6.22;94.04;97564.22;29394;213;64008;-62
2022/03/16 00:51:41;;;;;;;0.50;0.50;;;;;;;6.23;94.08;97573.94;29395;233;63008;-58
2022/03/16 00:52:12;;;;;;;0.50;0.50;;;;;;;6.23;94.15;97571.25;29395;228;63005;-63
2022/03/16 00:52:45;;;;;;;0.50;0.50;;;;;;;6.22;94.47;97566.91;29395;242;63009;-58
2022/03/16 00:53:16;;;;;;;0.50;0.50;;;;;;;6.21;94.40;97567.97;29395;224;63005;-63
2022/03/16 00:53:47;;;;;;;0.50;0.50;;;;;;;6.20;94.25;97560.94;29395;289;63009;-59
2022/03/16 00:54:18;;;;;;;0.50;0.50;;;;;;;6.19;94.30;97562.00;29395;230;63005;-62
2022/03/16 00:54:49;;;;;;;0.60;0.60;;;;;;;6.20;94.61;97574.44;29394;208;64004;-63
2022/03/16 00:55:20;;;;;;;0.70;0.70;;;;;;;6.25;94.61;97571.78;29371;243;64009;-61
2022/03/16 00:55:51;;;;;;;0.50;0.50;;;;;;;6.26;94.64;97568.84;29395;198;63009;-61
2022/03/16 00:56:23;;;;;;;0.50;0.50;;;;;;;6.25;94.48;97552.91;29394;215;64009;-63
2022/03/16 00:56:54;;;;;;;0.50;0.50;;;;;;;6.26;94.28;97559.94;29395;225;63009;-62
2022/03/16 00:57:25;;;;;;;0.50;0.50;;;;;;;6.26;94.27;97559.94;29395;212;63004;-60
2022/03/16 00:57:57;;;;;;;0.50;0.50;;;;;;;6.24;94.38;97559.38;29395;208;63009;-59
2022/03/16 00:58:29;;;;;;;0.50;0.50;;;;;;;6.21;94.31;97565.28;29395;239;63004;-60
2022/03/16 00:59:00;;;;;;;0.50;0.50;;;;;;;6.21;94.30;97566.09;29395;247;63008;-59
2022/03/16 00:59:31;;;;;;;0.50;0.50;;;;;;;6.20;94.34;97566.34;29395;224;63005;-61
2022/03/16 01:00:10;;;;;;;0.50;0.50;;;;;;;6.19;94.61;97568.22;29395;209;63009;-63
2022/03/16 01:00:42;;;;;;;0.50;0.50;;;;;;;6.19;94.51;97567.41;29395;230;63011;-59
2022/03/16 01:01:13;;;;;;;0.50;0.50;;;;;;;6.17;94.86;97566.84;29395;237;63009;-58
2022/03/16 01:01:45;;;;;;;0.50;0.50;;;;;;;6.15;95.04;97563.56;29394;245;64009;-61
2022/03/16 01:02:19;;;;;;;0.50;0.50;;;;;;;6.14;95.17;97570.84;29395;208;63009;-62
2022/03/16 01:02:50;;;;;;;0.50;0.50;;;;;;;6.14;94.89;97567.31;29395;213;63005;-61
2022/03/16 01:03:21;;;;;;;0.50;0.50;;;;;;;6.12;95.07;97564.88;29395;227;63009;-61
2022/03/16 01:03:55;;;;;;;0.50;0.50;;;;;;;6.13;94.95;97568.38;29395;236;63004;-62
2022/03/16 01:04:27;;;;;;;0.50;0.50;;;;;;;6.13;95.27;97576.47;29395;198;63009;-61
2022/03/16 01:04:59;;;;;;;0.50;0.50;;;;;;;6.12;95.24;97569.44;29395;284;63004;-61
2022/03/16 01:05:30;;;;;;;0.50;0.50;;;;;;;6.12;95.13;97570.28;29395;228;63009;-59
2022/03/16 01:06:02;;;;;;;0.50;0.50;;;;;;;6.13;95.48;97571.09;29395;236;63004;-60
2022/03/16 01:06:33;;;;;;;0.50;0.50;;;;;;;6.12;95.52;97572.97;29395;240;63008;-63
2022/03/16 01:07:06;;;;;;;0.50;0.50;;;;;;;6.12;95.37;97570.28;29394;198;64009;-58
2022/03/16 01:07:37;;;;;;;0.50;0.50;;;;;;;6.12;95.74;97561.37;29395;233;63009;-62
2022/03/16 01:08:08;;;;;;;0.60;0.60;;;;;;;6.12;95.59;97570.28;29395;197;63005;-62
2022/03/16 01:08:40;;;;;;;0.50;0.50;;;;;;;6.13;95.68;97571.09;29395;250;63005;-62
2022/03/16 01:09:11;;;;;;;0.50;0.50;;;;;;;6.11;95.77;97563.25;29395;202;63005;-61
2022/03/16 01:09:42;;;;;;;0.50;0.50;;;;;;;6.11;95.82;97567.81;29395;226;63018;-63
2022/03/16 01:10:14;;;;;;;0.50;0.50;;;;;;;6.11;95.67;97562.44;29395;205;63005;-60
2022/03/16 01:10:45;;;;;;;0.50;0.50;;;;;;;6.10;96.02;97568.88;29395;230;63009;-62
2022/03/16 01:11:17;;;;;;;0.50;0.50;;;;;;;6.08;95.78;97565.62;29395;282;63004;-63
2022/03/16 01:11:48;;;;;;;0.50;0.50;;;;;;;6.08;95.88;97562.94;29395;240;63009;-61
2022/03/16 01:12:20;;;;;;;0.50;0.50;;;;;;;6.07;95.90;97562.09;29394;212;64009;-62
2022/03/16 01:12:53;;;;;;;0.50;0.50;;;;;;;6.08;96.25;97568.31;29395;202;63009;-62
2022/03/16 01:13:26;;;;;;;0.50;0.50;;;;;;;6.07;96.00;97564.00;29395;202;63004;-63
2022/03/16 01:13:57;;;;;;;0.50;0.50;;;;;;;6.05;96.26;97565.06;29395;196;63008;-62
2022/03/16 01:14:30;;;;;;;0.50;0.50;;;;;;;6.07;96.33;97567.50;29395;239;63005;-61
2022/03/16 01:15:02;;;;;;;0.50;0.50;;;;;;;6.07;96.26;97566.69;29395;242;63009;-59
2022/03/16 01:15:33;;;;;;;0.50;0.50;;;;;;;6.05;96.05;97565.06;29395;203;63005;-62
2022/03/16 01:16:05;;;;;;;0.50;0.50;;;;;;;6.05;96.45;97567.75;29395;206;63005;-63
2022/03/16 01:16:39;;;;;;;0.50;0.50;;;;;;;6.03;96.24;97561.78;29395;202;63005;-62
2022/03/16 01:17:10;;;;;;;0.50;0.50;;;;;;;6.03;96.10;97564.47;29394;238;64013;-61
2022/03/16 01:17:41;;;;;;;0.50;0.50;;;;;;;6.03;96.23;97566.34;29395;262;63005;-61
2022/03/16 01:18:13;;;;;;;0.50;0.50;;;;;;;6.01;96.33;97563.09;29394;221;64013;-62
2022/03/16 01:18:44;;;;;;;0.50;0.50;;;;;;;6.01;96.16;97560.41;29395;234;63004;-62
2022/03/16 01:19:15;;;;;;;0.50;0.50;;;;;;;6.00;96.39;97561.47;29395;247;63009;-63
2022/03/16 01:19:46;;;;;;;0.50;0.50;;;;;;;6.01;96.16;97557.72;29395;231;63004;-62
2022/03/16 01:20:21;;;;;;;0.50;0.50;;;;;;;6.00;96.50;97567.66;29395;202;63009;-62
2022/03/16 01:20:52;;;;;;;0.50;0.50;;;;;;;6.00;96.21;97562.28;29395;234;63004;-62
2022/03/16 01:21:23;;;;;;;0.50;0.50;;;;;;;6.01;96.29;97569.28;29395;205;63008;-63
2022/03/16 01:21:55;;;;;;;0.60;0.60;;;;;;;6.01;96.39;97563.91;29395;199;63004;-63
2022/03/16 01:22:26;;;;;;;0.50;0.50;;;;;;;6.02;96.46;97564.72;29395;216;63009;-61
2022/03/16 01:22:57;;;;;;;0.50;0.50;;;;;;;6.02;96.07;97559.34;29395;202;63005;-62
2022/03/16 01:23:28;;;;;;;0.50;0.50;;;;;;;6.03;96.26;97561.78;29394;253;64014;-63
2022/03/16 01:23:59;;;;;;;0.50;0.50;;;;;;;6.02;96.08;97562.03;29395;234;63005;-58
2022/03/16 01:24:32;;;;;;;0.50;0.50;;;;;;;6.01;96.34;97563.91;29395;199;63009;-58
2022/03/16 01:25:06;;;;;;;0.50;0.50;;;;;;;6.00;96.31;97567.66;29395;255;63005;-61
2022/03/16 01:25:38;;;;;;;0.50;0.50;;;;;;;6.00;96.07;97567.66;29395;231;63009;-58
2022/03/16 01:26:10;;;;;;;0.50;0.50;;;;;;;6.00;96.15;97562.28;29395;212;63004;-62
2022/03/16 01:26:42;;;;;;;0.50;0.50;;;;;;;6.00;96.32;97562.28;29395;272;63009;-59
2022/03/16 01:27:13;;;;;;;0.50;0.50;;;;;;;6.00;96.24;97562.28;29395;208;63004;-58
2022/03/16 01:27:44;;;;;;;0.50;0.50;;;;;;;5.99;96.41;97560.66;29395;235;63009;-62
2022/03/16 01:28:15;;;;;;;0.50;0.50;;;;;;;6.01;96.09;97563.91;29395;224;63004;-62
2022/03/16 01:28:46;;;;;;;15.20;10.93;;;;;;;6.01;96.37;97561.22;29384;234;66014;-61
2022/03/16 01:29:18;;;;;;;0.50;0.50;;;;;;;6.01;96.12;97555.81;29395;219;63005;-61
2022/03/16 01:29:49;;;;;;;0.50;0.50;;;;;;;6.01;96.15;97553.13;29395;227;63012;-62
2022/03/16 01:30:23;;;;;;;0.50;0.50;;;;;;;6.01;96.37;97547.75;29394;218;64009;-62
2022/03/16 01:30:54;;;;;;;0.50;0.50;;;;;;;6.02;96.07;97559.34;29395;209;63009;-61
2022/03/16 01:31:26;;;;;;;0.50;0.50;;;;;;;6.01;95.96;97558.53;29395;221;63016;-58
2022/03/16 01:31:57;;;;;;;0.95;0.95;;;;;;;6.01;96.01;97557.72;29395;217;63009;-62
2022/03/16 01:32:28;;;;;;;0.50;0.50;;;;;;;6.01;96.13;97558.53;29395;202;63005;-58
2022/03/16 01:32:59;;;;;;;0.50;0.50;;;;;;;6.01;96.10;97550.44;29395;223;63009;-60
2022/03/16 01:33:32;;;;;;;0.50;0.50;;;;;;;6.01;96.04;97553.13;29395;229;63004;-62
2022/03/16 01:34:04;;;;;;;0.50;0.50;;;;;;;6.01;96.08;97555.81;29395;207;63009;-63
2022/03/16 01:34:38;;;;;;;0.50;0.50;;;;;;;6.00;96.21;97562.28;29395;227;63004;-58
2022/03/16 01:35:11;;;;;;;0.77;0.77;;;;;;;5.99;96.29;97557.94;29395;235;63009;-58
2022/03/16 01:35:42;;;;;;;0.50;0.50;;;;;;;5.99;96.29;97555.25;29394;261;64008;-58
2022/03/16 01:36:13;;;;;;;0.73;0.73;;;;;;;6.00;96.09;97562.28;29395;230;63008;-61
2022/03/16 01:36:44;;;;;;;0.50;0.50;;;;;;;6.00;96.08;97554.19;29395;221;63005;-58
2022/03/16 01:37:18;;;;;;;0.52;0.52;;;;;;;5.98;96.33;97553.63;29395;200;63009;-62
2022/03/16 01:37:49;;;;;;;0.50;0.50;;;;;;;5.97;96.22;97554.69;29395;226;63005;-58
2022/03/16 01:38:20;;;;;;;0.50;0.50;;;;;;;5.96;96.29;97558.44;29395;237;63009;-59
2022/03/16 01:38:51;;;;;;;0.50;0.50;;;;;;;5.97;96.24;97556.56;29395;214;63005;-62
2022/03/16 01:39:22;;;;;;;0.50;0.50;;;;;;;5.90;96.57;97551.34;29395;221;63009;-61
2022/03/16 01:39:54;;;;;;;0.50;0.50;;;;;;;5.96;96.25;97555.75;29395;217;63005;-59
2022/03/16 01:40:25;;;;;;;0.50;0.50;;;;;;;5.97;96.53;97556.56;29395;243;63009;-62
2022/03/16 01:40:56;;;;;;;0.50;0.50;;;;;;;5.96;96.26;97561.13;29394;228;64009;-62
2022/03/16 01:41:27;;;;;;;0.50;0.50;;;;;;;5.96;96.54;97561.13;29395;206;63009;-62
2022/03/16 01:41:58;;;;;;;0.50;0.50;;;;;;;5.95;96.50;97554.13;29395;210;63004;-63
2022/03/16 01:42:30;;;;;;;1.12;1.12;;;;;;;5.97;96.53;97568.16;29395;231;63009;-59
2022/03/16 01:43:01;;;;;;;0.50;0.50;;;;;;;5.97;96.47;97568.16;29395;216;63004;-62
2022/03/16 01:43:32;;;;;;;0.50;0.50;;;;;;;5.98;96.33;97559.00;29395;228;63008;-59
2022/03/16 01:44:08;;;;;;;0.50;0.50;;;;;;;5.98;96.33;97558.19;29395;230;63001;-62
2022/03/16 01:44:54;;;;;;;0.50;0.50;;;;;;;5.98;96.69;97564.41;29395;236;63009;-62
2022/03/16 01:45:26;;;;;;;0.50;0.50;;;;;;;5.98;96.72;97564.41;29395;236;63005;-62
2022/03/16 01:45:57;;;;;;;0.50;0.50;;;;;;;5.97;96.89;97560.06;29394;237;64013;-62
2022/03/16 01:46:28;;;;;;;0.50;0.50;;;;;;;5.98;96.58;97569.78;29395;196;63005;-59
2022/03/16 01:46:59;;;;;;;0.50;0.50;;;;;;;5.97;96.67;97562.78;29395;252;63009;-62
2022/03/16 01:47:30;;;;;;;0.50;0.50;;;;;;;5.96;96.68;97565.72;29395;232;63007;-59
2022/03/16 01:48:05;;;;;;;0.50;0.50;;;;;;;5.96;97.01;97560.31;29395;208;63009;-59
2022/03/16 01:48:36;;;;;;;0.55;0.55;;;;;;;5.96;97.04;97566.53;29394;210;64000;-63
2022/03/16 01:49:07;;;;;;;0.50;0.50;;;;;;;5.96;97.09;97566.53;29395;221;63014;-61
2022/03/16 01:49:40;;;;;;;0.50;0.50;;;;;;;5.96;96.65;97574.59;29395;202;63004;-58
2022/03/16 01:50:11;;;;;;;0.50;0.50;;;;;;;5.97;97.05;97567.34;29395;227;63009;-59
2022/03/16 01:50:43;;;;;;;0.50;0.50;;;;;;;5.97;96.65;97568.16;29395;280;63004;-63
2022/03/16 01:51:14;;;;;;;0.50;0.50;;;;;;;5.98;96.77;97572.47;29395;244;63008;-62
2022/03/16 01:51:49;;;;;;;0.60;0.60;;;;;;;5.96;96.71;97566.53;29395;220;63005;-63
2022/03/16 01:52:24;;;;;;;0.50;0.50;;;;;;;5.97;97.03;97562.78;29394;225;64014;-59
2022/03/16 01:52:55;;;;;;;0.50;0.50;;;;;;;5.96;96.77;97560.31;29395;237;63005;-62
2022/03/16 01:53:27;;;;;;;0.50;0.50;;;;;;;5.95;97.02;97564.88;29395;197;63005;-63
2022/03/16 01:53:58;;;;;;;0.50;0.50;;;;;;;5.96;97.22;97569.22;29395;220;63005;-60
2022/03/16 01:54:34;;;;;;;0.50;0.50;;;;;;;5.94;97.35;97563.25;29395;204;63009;-61
2022/03/16 01:55:06;;;;;;;0.50;0.50;;;;;;;5.94;97.17;97563.25;29395;225;63005;-58
2022/03/16 01:55:39;;;;;;;0.60;0.60;;;;;;;5.94;97.32;97562.44;29394;236;64013;-62
2022/03/16 01:56:11;;;;;;;0.50;0.50;;;;;;;5.95;97.00;97564.06;29395;236;63004;-61
2022/03/16 01:56:42;;;;;;;0.50;0.50;;;;;;;5.94;97.37;97562.44;29395;207;63009;-59
2022/03/16 01:57:15;;;;;;;0.50;0.50;;;;;;;5.93;97.17;97564.31;29395;367;63004;-59
2022/03/16 01:57:47;;;;;;;0.50;0.50;;;;;;;5.94;97.08;97563.25;29395;205;63009;-62
2022/03/16 01:58:19;;;;;;;0.90;0.90;;;;;;;5.92;97.10;97560.00;29395;221;63004;-62
2022/03/16 01:58:51;;;;;;;0.50;0.50;;;;;;;5.91;97.42;97562.94;29395;207;63008;-59
2022/03/16 01:59:22;;;;;;;1.30;1.30;;;;;;;5.90;97.37;97562.13;29395;241;63005;-62
2022/03/16 01:59:53;;;;;;;0.50;0.50;;;;;;;5.91;97.12;97563.75;29395;213;63009;-59
2022/03/16 02:00:24;;;;;;;0.50;0.50;;;;;;;5.92;97.08;97560.00;29395;346;63005;-59
2022/03/16 02:00:55;;;;;;;0.50;0.50;;;;;;;5.91;97.46;97563.75;29394;235;64013;-63
2022/03/16 02:01:28;;;;;;;0.50;0.50;;;;;;;5.91;97.49;97558.38;29395;220;63005;-58
2022/03/16 02:01:59;;;;;;;0.50;0.50;;;;;;;5.92;97.23;97562.69;29395;233;63009;-60
2022/03/16 02:02:30;;;;;;;3.90;3.70;;;;;;;5.91;97.26;97563.75;29395;226;63004;-59
2022/03/16 02:03:02;;;;;;;0.50;0.50;;;;;;;5.89;97.54;97560.47;29395;220;63009;-58
2022/03/16 02:03:34;;;;;;;0.50;0.50;;;;;;;5.88;97.77;97564.25;29394;211;64009;-59
2022/03/16 02:04:05;;;;;;;0.50;0.50;;;;;;;5.87;97.57;97562.59;29395;212;63009;-63
2022/03/16 02:04:36;;;;;;;0.50;0.50;;;;;;;5.87;97.40;97557.22;29395;220;63004;-61
2022/03/16 02:05:08;;;;;;;0.50;0.50;;;;;;;5.88;97.68;97563.41;29395;244;63008;-63
2022/03/16 02:05:40;;;;;;;0.50;0.50;;;;;;;5.89;97.36;97563.19;29395;198;63009;-62
2022/03/16 02:06:14;;;;;;;8.82;5.18;;;;;;;5.88;97.33;97558.84;29393;294;65013;-59
2022/03/16 02:06:47;;;;;;;0.60;0.60;;;;;;;5.89;97.16;97567.78;29395;280;63005;-62
2022/03/16 02:07:21;;;;;;;0.50;0.50;;;;;;;5.89;97.23;97560.47;29373;232;63009;-63
2022/03/16 02:07:53;;;;;;;0.60;0.60;;;;;;;5.90;97.20;97558.59;29395;313;63009;-61
2022/03/16 02:08:25;;;;;;;0.50;0.50;;;;;;;5.89;97.53;97555.09;29395;210;63009;-62
2022/03/16 02:08:56;;;;;;;0.50;0.50;;;;;;;5.89;97.48;97560.47;29394;239;64009;-58
2022/03/16 02:09:28;;;;;;;0.60;0.60;;;;;;;5.90;97.56;97556.72;29395;240;63009;-60
2022/03/16 02:10:07;;;;;;;0.50;0.50;;;;;;;5.91;97.39;97558.38;29395;209;63004;-63
2022/03/16 02:10:40;;;;;;;0.50;0.50;;;;;;;5.92;97.28;97559.19;29395;228;63009;-59
2022/03/16 02:11:14;;;;;;;0.50;0.50;;;;;;;5.92;97.23;97565.38;29395;221;63004;-62
2022/03/16 02:11:45;;;;;;;0.50;0.50;;;;;;;5.92;97.28;97562.69;29395;242;63009;-62
2022/03/16 02:12:19;;;;;;;0.50;0.50;;;;;;;5.92;97.27;97564.56;29395;214;63004;-59
2022/03/16 02:12:53;;;;;;;0.50;0.50;;;;;;;5.92;97.56;97565.38;29394;196;64013;-58
2022/03/16 02:13:25;;;;;;;0.50;0.50;;;;;;;5.92;97.62;97560.00;29395;214;63005;-63
2022/03/16 02:13:57;;;;;;;0.50;0.50;;;;;;;5.93;97.45;97561.63;29395;341;63009;-61
2022/03/16 02:14:31;;;;;;;0.50;0.50;;;;;;;5.93;97.53;97558.94;29395;198;63005;-58
2022/03/16 02:15:03;;;;;;;0.60;0.60;;;;;;;5.93;97.57;97564.31;29395;288;63009;-59
2022/03/16 02:15:38;;;;;;;0.50;0.50;;;;;;;5.94;97.37;97562.44;29373;221;63005;-59
2022/03/16 02:16:10;;;;;;;0.50;0.50;;;;;;;5.94;97.37;97559.75;29395;197;63009;-59
2022/03/16 02:16:41;;;;;;;0.50;0.50;;;;;;;5.95;97.37;97564.06;29394;289;64009;-61
2022/03/16 02:17:16;;;;;;;0.50;0.50;;;;;;;5.94;97.56;97568.66;29395;230;63009;-62
2022/03/16 02:17:50;;;;;;;0.50;0.50;;;;;;;5.95;97.25;97559.50;29395;236;63004;-59
2022/03/16 02:18:21;;;;;;;0.50;0.50;;;;;;;5.96;97.21;97563.00;29394;232;64013;-61
2022/03/16 02:18:53;;;;;;;0.50;0.50;;;;;;;5.95;97.35;97559.50;29394;199;64009;-62
2022/03/16 02:19:24;;;;;;;0.50;0.50;;;;;;;5.95;97.43;97559.50;29395;222;63009;-62
2022/03/16 02:19:55;;;;;;;0.50;0.50;;;;;;;5.95;97.21;97562.19;29395;196;63004;-61
2022/03/16 02:20:27;;;;;;;0.50;0.50;;;;;;;5.96;97.61;97555.75;29395;218;63008;-61
2022/03/16 02:21:02;;;;;;;0.50;0.50;;;;;;;5.97;97.29;97557.38;29395;203;63005;-62
2022/03/16 02:21:37;;;;;;;0.50;0.50;;;;;;;5.96;97.56;97563.81;29395;213;63009;-58
2022/03/16 02:22:13;;;;;;;0.50;0.50;;;;;;;5.97;97.18;97560.06;29395;229;63005;-62
2022/03/16 02:23:01;;;;;;;0.50;0.50;;;;;;;5.97;97.45;97557.38;29395;296;63009;-61
2022/03/16 02:23:32;;;;;;;0.50;0.50;;;;;;;5.97;97.43;97557.38;29394;216;64009;-62
2022/03/16 02:24:05;;;;;;;0.50;0.50;;;;;;;5.97;97.25;97556.56;29395;198;63009;-62
2022/03/16 02:24:36;;;;;;;0.50;0.50;;;;;;;5.97;97.45;97562.78;29395;214;63005;-62
2022/03/16 02:25:09;;;;;;;0.50;0.50;;;;;;;5.97;97.41;97562.78;29395;233;63009;-61
2022/03/16 02:25:51;;;;;;;0.50;0.50;;;;;;;5.97;97.29;97554.69;29395;240;63008;-63
2022/03/16 02:26:26;;;;;;;0.60;0.60;;;;;;;5.97;97.44;97557.38;29395;237;63009;-62
2022/03/16 02:26:58;;;;;;;0.50;0.50;;;;;;;5.98;97.12;97559.00;29395;335;63004;-62
2022/03/16 02:27:29;;;;;;;0.50;0.50;;;;;;;5.98;97.14;97553.63;29373;205;63008;-59
2022/03/16 02:28:00;;;;;;;0.50;0.50;;;;;;;5.98;97.36;97559.00;29395;250;63004;-61
2022/03/16 02:28:32;;;;;;;0.50;0.50;;;;;;;5.97;97.49;97552.00;29394;222;64014;-59
2022/03/16 02:29:03;;;;;;;0.60;0.60;;;;;;;5.98;97.01;97553.63;29395;245;63005;-62
2022/03/16 02:29:34;;;;;;;0.50;0.50;;;;;;;6.00;97.36;97558.75;29395;237;63009;-62
2022/03/16 02:30:06;;;;;;;0.50;0.50;;;;;;;5.99;97.10;97560.66;29395;250;63005;-62
2022/03/16 02:30:38;;;;;;;0.50;0.50;;;;;;;5.99;97.38;97557.94;29395;239;63009;-62
2022/03/16 02:31:09;;;;;;;0.50;0.50;;;;;;;6.00;97.35;97556.06;29395;237;63005;-62
2022/03/16 02:31:40;;;;;;;0.50;0.50;;;;;;;5.99;97.16;97557.13;29395;220;63009;-62
2022/03/16 02:32:11;;;;;;;0.50;0.50;;;;;;;6.00;97.21;97556.88;29395;264;63005;-62
2022/03/16 02:32:42;;;;;;;0.50;0.50;;;;;;;5.98;97.40;97550.94;29395;234;63009;-62
2022/03/16 02:33:13;;;;;;;0.50;0.50;;;;;;;5.99;97.13;97555.25;29394;212;64009;-61
2022/03/16 02:33:44;;;;;;;0.50;0.50;;;;;;;5.99;97.45;97560.66;29395;218;63009;-62
2022/03/16 02:34:15;;;;;;;0.50;0.50;;;;;;;6.00;97.12;97554.19;29395;197;63004;-63
2022/03/16 02:34:47;;;;;;;0.50;0.50;;;;;;;6.02;97.16;97564.72;29395;218;63009;-63